createdAt,value
2019-04-04T00:01:06.452Z,12.10
2019-04-04T00:03:36.444Z,12.10
2019-04-04T00:06:06.815Z,12.10
2019-04-04T00:08:36.888Z,12.10
2019-04-04T00:11:06.984Z,12.10
2019-04-04T00:13:37.130Z,12.10
2019-04-04T00:16:07.228Z,12.20
2019-04-04T00:18:37.265Z,12.10
2019-04-04T00:21:07.291Z,12.10
2019-04-04T00:23:38.095Z,12.10
2019-04-04T00:26:10.538Z,12.00
2019-04-04T00:28:40.327Z,12.00
2019-04-04T00:31:10.370Z,12.00
2019-04-04T00:33:40.869Z,12.00
2019-04-04T00:36:10.944Z,12.00
2019-04-04T00:38:41.953Z,12.00
2019-04-04T00:41:13.019Z,12.00
2019-04-04T00:43:43.573Z,12.00
2019-04-04T00:46:13.955Z,12.00
2019-04-04T00:48:45.348Z,12.00
2019-04-04T00:51:15.282Z,11.90
2019-04-04T00:53:45.263Z,11.90
2019-04-04T00:56:16.060Z,11.90
2019-04-04T00:58:47.253Z,11.90
2019-04-04T01:01:17.511Z,11.90
2019-04-04T01:03:47.867Z,11.90
2019-04-04T01:06:17.908Z,11.90
2019-04-04T01:08:47.889Z,11.90
2019-04-04T01:11:18.348Z,11.80
2019-04-04T01:13:49.679Z,11.80
2019-04-04T01:16:19.668Z,11.90
2019-04-04T01:18:49.909Z,11.90
2019-04-04T01:21:22.166Z,11.90
2019-04-04T01:23:51.979Z,11.90
2019-04-04T01:26:22.016Z,11.80
2019-04-04T01:28:53.150Z,11.80
2019-04-04T01:31:23.268Z,11.80
2019-04-04T01:33:53.645Z,11.80
2019-04-04T01:36:25.325Z,11.70
2019-04-04T01:38:55.841Z,11.70
2019-04-04T01:41:25.882Z,11.70
2019-04-04T01:44:04.999Z,11.60
2019-04-04T01:46:27.669Z,11.60
2019-04-04T01:48:57.662Z,11.60
2019-04-04T01:51:27.694Z,11.50
2019-04-04T01:53:59.003Z,11.50
2019-04-04T01:56:29.791Z,11.50
2019-04-04T01:59:00.053Z,11.60
2019-04-04T02:01:30.074Z,11.60
2019-04-04T02:04:00.582Z,11.60
2019-04-04T02:06:30.576Z,11.70
2019-04-04T02:09:02.466Z,11.60
2019-04-04T02:11:33.645Z,11.60
2019-04-04T02:14:03.566Z,11.60
2019-04-04T02:16:33.597Z,11.60
2019-04-04T02:19:03.577Z,11.50
2019-04-04T02:21:34.077Z,11.50
2019-04-04T02:24:04.128Z,11.60
2019-04-04T02:26:36.176Z,11.60
2019-04-04T02:29:05.842Z,11.60
2019-04-04T02:31:40.579Z,11.60
2019-04-04T02:34:10.676Z,11.60
2019-04-04T02:36:40.812Z,11.60
2019-04-04T02:39:12.661Z,11.50
2019-04-04T02:41:47.558Z,11.60
2019-04-04T02:44:14.884Z,11.60
2019-04-04T02:46:45.813Z,11.50
2019-04-04T02:49:16.168Z,11.50
2019-04-04T02:51:46.532Z,11.60
2019-04-04T02:54:17.151Z,11.60
2019-04-04T02:56:47.808Z,11.90
2019-04-04T02:59:21.585Z,12.00
2019-04-04T03:01:51.477Z,12.20
2019-04-04T03:04:21.445Z,12.20
2019-04-04T03:06:51.474Z,12.20
2019-04-04T03:09:21.707Z,12.20
2019-04-04T03:11:54.081Z,12.20
2019-04-04T03:14:23.913Z,12.30
2019-04-04T03:16:56.304Z,12.40
2019-04-04T03:19:26.196Z,12.40
2019-04-04T03:21:56.279Z,12.40
2019-04-04T03:24:26.621Z,12.40
2019-04-04T03:26:56.753Z,12.40
2019-04-04T03:29:26.998Z,12.40
2019-04-04T03:31:57.961Z,12.40
2019-04-04T03:34:28.063Z,12.40
2019-04-04T03:36:58.091Z,12.50
2019-04-04T03:39:28.183Z,12.50
2019-04-04T03:41:58.441Z,12.50
2019-04-04T03:44:28.570Z,12.50
2019-04-04T03:46:58.751Z,12.40
2019-04-04T03:49:28.791Z,12.50
2019-04-04T03:52:00.299Z,12.50
2019-04-04T03:54:30.319Z,12.50
2019-04-04T03:57:00.407Z,12.50
2019-04-04T03:59:32.513Z,12.50
2019-04-04T04:02:02.311Z,12.50
2019-04-04T04:04:32.276Z,12.50
2019-04-04T04:07:02.271Z,12.50
2019-04-04T04:09:32.210Z,12.40
2019-04-04T04:12:02.195Z,12.50
2019-04-04T04:14:32.245Z,12.50
2019-04-04T04:17:02.247Z,12.50
2019-04-04T04:19:32.390Z,12.50
2019-04-04T04:22:02.412Z,12.50
2019-04-04T04:24:32.380Z,12.50
2019-04-04T04:27:02.684Z,12.50
2019-04-04T04:29:34.454Z,12.50
2019-04-04T04:32:04.881Z,12.50
2019-04-04T04:34:35.124Z,12.50
2019-04-04T04:37:05.201Z,12.50
2019-04-04T04:39:40.825Z,12.60
2019-04-04T04:42:07.433Z,12.60
2019-04-04T04:44:39.044Z,12.50
2019-04-04T04:47:10.240Z,12.60
2019-04-04T04:49:41.145Z,12.50
2019-04-04T04:52:14.210Z,12.60
2019-04-04T04:54:43.193Z,12.60
2019-04-04T04:57:28.427Z,12.50
2019-04-04T04:59:45.193Z,12.60
2019-04-04T05:02:15.263Z,12.60
2019-04-04T05:04:45.190Z,12.50
2019-04-04T05:07:15.279Z,12.50
2019-04-04T05:09:45.283Z,12.50
2019-04-04T05:12:15.328Z,12.50
2019-04-04T05:14:45.606Z,12.50
2019-04-04T05:17:15.651Z,12.50
2019-04-04T05:19:45.663Z,12.50
2019-04-04T05:22:15.654Z,12.50
2019-04-04T05:24:49.134Z,12.50
2019-04-04T05:27:18.187Z,12.50
2019-04-04T05:29:48.557Z,12.40
2019-04-04T05:32:21.073Z,12.50
2019-04-04T05:34:50.343Z,12.50
2019-04-04T05:37:20.684Z,12.50
2019-04-04T05:39:51.536Z,12.50
2019-04-04T05:42:22.122Z,12.50
2019-04-04T05:44:52.051Z,12.40
2019-04-04T05:47:23.280Z,12.40
2019-04-04T05:49:53.825Z,12.40
2019-04-04T05:52:23.913Z,12.40
2019-04-04T05:54:53.950Z,12.40
2019-04-04T05:57:24.879Z,12.40
2019-04-04T05:59:56.066Z,12.50
2019-04-04T06:02:26.699Z,12.50
2019-04-04T06:04:56.628Z,12.40
2019-04-04T06:07:26.551Z,12.40
2019-04-04T06:09:56.530Z,12.40
2019-04-04T06:12:26.835Z,12.50
2019-04-04T06:14:56.885Z,12.50
2019-04-04T06:17:27.044Z,12.50
2019-04-04T06:19:57.082Z,12.50
2019-04-04T06:22:27.098Z,12.50
2019-04-04T06:24:59.314Z,12.50
2019-04-04T06:27:29.154Z,12.50
2019-04-04T06:29:59.237Z,12.50
2019-04-04T06:32:31.034Z,12.50
2019-04-04T06:35:01.271Z,12.50
2019-04-04T06:37:34.069Z,12.50
2019-04-04T06:40:03.324Z,12.50
2019-04-04T06:42:36.252Z,12.50
2019-04-04T06:45:05.762Z,12.50
2019-04-04T06:47:35.968Z,12.50
2019-04-04T06:50:08.023Z,12.50
2019-04-04T06:52:38.173Z,12.50
2019-04-04T06:55:08.291Z,12.50
2019-04-04T06:57:38.199Z,12.50
2019-04-04T07:00:08.523Z,12.50
2019-04-04T07:02:38.554Z,12.50
2019-04-04T07:05:10.542Z,12.50
2019-04-04T07:07:43.127Z,12.60
2019-04-04T07:10:13.083Z,12.50
2019-04-04T07:12:43.423Z,12.60
2019-04-04T07:15:16.038Z,12.60
2019-04-04T07:17:45.504Z,12.60
2019-04-04T07:20:17.110Z,12.60
2019-04-04T07:22:47.181Z,12.60
2019-04-04T07:25:17.561Z,12.50
2019-04-04T07:27:48.072Z,12.50
2019-04-04T07:30:19.645Z,12.50
2019-04-04T07:32:49.694Z,12.50
2019-04-04T07:35:21.062Z,12.60
2019-04-04T07:37:56.641Z,12.50
2019-04-04T07:40:23.499Z,12.50
2019-04-04T07:42:53.456Z,12.60
2019-04-04T07:45:26.717Z,12.60
2019-04-04T07:47:56.109Z,12.60
2019-04-04T07:50:27.111Z,12.50
2019-04-04T07:52:57.424Z,12.50
2019-04-04T07:55:27.714Z,12.50
2019-04-04T07:57:58.663Z,12.60
2019-04-04T08:00:28.830Z,12.60
2019-04-04T08:02:58.775Z,12.60
2019-04-04T08:05:28.841Z,12.50
2019-04-04T08:07:58.878Z,12.60
2019-04-04T08:10:28.850Z,12.60
2019-04-04T08:12:59.211Z,12.60
2019-04-04T08:15:29.710Z,12.60
2019-04-04T08:18:00.138Z,12.60
2019-04-04T08:20:30.644Z,12.60
2019-04-04T08:23:00.787Z,12.60
2019-04-04T08:25:31.176Z,12.60
2019-04-04T08:28:01.193Z,12.60
2019-04-04T08:30:31.399Z,12.60
2019-04-04T08:33:01.451Z,12.60
2019-04-04T08:35:31.896Z,12.60
2019-04-04T08:38:02.014Z,12.60
2019-04-04T08:40:32.450Z,12.60
2019-04-04T08:43:02.470Z,12.60
2019-04-04T08:45:33.011Z,12.60
2019-04-04T08:48:03.248Z,12.70
2019-04-04T08:50:33.753Z,12.70
2019-04-04T08:53:04.816Z,12.60
2019-04-04T08:55:34.859Z,12.70
2019-04-04T08:58:05.206Z,12.70
2019-04-04T09:00:35.253Z,12.70
2019-04-04T09:03:05.258Z,12.70
2019-04-04T09:05:35.282Z,12.70
2019-04-04T09:08:06.113Z,12.70
2019-04-04T09:10:36.992Z,12.70
2019-04-04T09:13:07.009Z,12.80
2019-04-04T09:15:37.610Z,12.80
2019-04-04T09:18:08.413Z,12.90
2019-04-04T09:20:38.651Z,12.90
2019-04-04T09:23:08.921Z,12.90
2019-04-04T09:25:40.838Z,12.80
2019-04-04T09:28:11.086Z,12.90
2019-04-04T09:30:41.740Z,12.90
2019-04-04T09:33:12.099Z,12.90
2019-04-04T09:35:42.157Z,12.90
2019-04-04T09:38:12.371Z,13.00
2019-04-04T09:40:42.549Z,13.10
2019-04-04T09:43:13.152Z,13.10
2019-04-04T09:45:43.623Z,13.10
2019-04-04T09:48:13.592Z,13.10
2019-04-04T09:50:43.672Z,13.10
2019-04-04T09:53:14.134Z,13.00
2019-04-04T09:55:44.535Z,13.00
2019-04-04T09:58:14.705Z,12.90
2019-04-04T10:00:45.290Z,13.00
2019-04-04T10:03:15.308Z,13.00
2019-04-04T10:05:45.613Z,13.00
2019-04-04T10:08:15.676Z,13.00
2019-04-04T10:10:46.082Z,13.10
2019-04-04T10:13:16.030Z,13.00
2019-04-04T10:15:46.088Z,12.90
2019-04-04T10:18:16.025Z,13.10
2019-04-04T10:20:46.033Z,13.00
2019-04-04T10:23:16.072Z,13.00
2019-04-04T10:25:46.830Z,13.00
2019-04-04T10:28:16.959Z,13.00
2019-04-04T10:30:47.194Z,13.00
2019-04-04T10:33:17.118Z,13.00
2019-04-04T10:35:47.361Z,13.10
2019-04-04T10:38:17.903Z,13.10
2019-04-04T10:40:47.818Z,13.00
2019-04-04T10:43:17.813Z,13.00
2019-04-04T10:45:48.135Z,13.00
2019-04-04T10:48:18.556Z,13.00
2019-04-04T10:50:48.581Z,13.00
2019-04-04T10:53:18.688Z,13.00
2019-04-04T10:55:48.719Z,12.90
2019-04-04T10:58:18.746Z,13.00
2019-04-04T11:00:49.177Z,13.00
2019-04-04T11:03:19.530Z,13.00
2019-04-04T11:05:49.532Z,13.00
2019-04-04T11:08:19.682Z,13.00
2019-04-04T11:10:50.346Z,13.00
2019-04-04T11:13:32.977Z,12.90
2019-04-04T11:15:52.297Z,12.90
2019-04-04T11:18:22.279Z,12.90
2019-04-04T11:20:52.353Z,12.90
2019-04-04T11:23:22.676Z,12.90
2019-04-04T11:25:52.720Z,12.90
2019-04-04T11:28:22.945Z,12.90
2019-04-04T11:30:52.995Z,13.00
2019-04-04T11:33:22.998Z,13.00
2019-04-04T11:35:53.020Z,12.90
2019-04-04T11:38:23.003Z,12.90
2019-04-04T11:40:53.041Z,12.90
2019-04-04T11:43:23.403Z,12.90
2019-04-04T11:45:53.384Z,12.90
2019-04-04T11:48:23.618Z,13.00
2019-04-04T11:50:53.904Z,13.00
2019-04-04T11:53:23.931Z,13.00
2019-04-04T11:55:54.089Z,12.90
2019-04-04T11:58:24.221Z,13.00
2019-04-04T12:00:56.221Z,12.90
2019-04-04T12:03:26.737Z,13.00
2019-04-04T12:05:56.673Z,12.90
2019-04-04T12:08:27.329Z,13.10
2019-04-04T12:10:57.692Z,13.10
2019-04-04T12:13:27.731Z,13.00
2019-04-04T12:15:57.933Z,13.00
2019-04-04T12:18:28.479Z,13.00
2019-04-04T12:20:58.431Z,13.00
2019-04-04T12:23:28.548Z,13.10
2019-04-04T12:25:59.032Z,13.00
2019-04-04T12:28:29.065Z,13.00
2019-04-04T12:30:59.207Z,12.90
2019-04-04T12:33:29.198Z,12.90
2019-04-04T12:35:59.254Z,13.00
2019-04-04T12:38:29.771Z,13.00
2019-04-04T12:41:00.162Z,13.00
2019-04-04T12:43:31.155Z,13.10
2019-04-04T12:46:01.258Z,13.00
2019-04-04T12:48:31.708Z,13.00
2019-04-04T12:51:02.617Z,13.10
2019-04-04T12:53:37.456Z,13.10
2019-04-04T12:56:07.810Z,13.00
2019-04-04T12:58:37.810Z,13.10
2019-04-04T13:01:08.198Z,13.10
2019-04-04T13:03:38.582Z,13.10
2019-04-04T13:06:08.556Z,13.10
2019-04-04T13:08:39.266Z,13.10
2019-04-04T13:11:09.630Z,13.10
2019-04-04T13:13:39.598Z,13.20
2019-04-04T13:16:09.624Z,13.30
2019-04-04T13:18:39.692Z,13.30
2019-04-04T13:21:09.973Z,13.20
2019-04-04T13:23:41.092Z,13.20
2019-04-04T13:26:12.251Z,13.20
2019-04-04T13:28:42.260Z,13.20
2019-04-04T13:31:12.908Z,13.40
2019-04-04T13:33:42.942Z,13.40
2019-04-04T13:36:12.986Z,13.50
2019-04-04T13:38:43.356Z,13.40
2019-04-04T13:41:21.838Z,13.40
2019-04-04T13:43:48.971Z,13.40
2019-04-04T13:46:19.348Z,13.30
2019-04-04T13:48:49.370Z,13.30
2019-04-04T13:51:21.075Z,13.20
2019-04-04T13:53:51.429Z,13.20
2019-04-04T13:56:25.018Z,13.20
2019-04-04T13:59:01.003Z,13.20
2019-04-04T14:01:30.080Z,13.20
2019-04-04T14:04:00.993Z,13.20
2019-04-04T14:06:32.341Z,13.10
2019-04-04T14:09:03.468Z,13.10
2019-04-04T14:11:35.732Z,13.10
2019-04-04T14:14:06.171Z,13.20
2019-04-04T14:16:40.554Z,13.20
2019-04-04T14:19:10.666Z,13.10
2019-04-04T14:21:41.513Z,13.10
2019-04-04T14:24:13.988Z,13.10
2019-04-04T14:26:45.910Z,13.00
2019-04-04T14:29:26.822Z,13.00
2019-04-04T14:31:47.698Z,13.00
2019-04-04T14:34:18.766Z,12.90
2019-04-04T14:36:49.514Z,13.00
2019-04-04T14:39:22.164Z,13.00
2019-04-04T14:41:52.605Z,12.90
2019-04-04T14:44:22.576Z,12.80
2019-04-04T14:46:53.035Z,12.80
2019-04-04T14:49:27.608Z,12.80
2019-04-04T14:51:58.572Z,12.90
2019-04-04T14:54:29.282Z,12.80
2019-04-04T14:57:00.604Z,12.70
2019-04-04T14:59:31.974Z,12.70
2019-04-04T15:02:02.270Z,12.70
2019-04-04T15:04:32.966Z,12.70
2019-04-04T15:07:02.995Z,12.70
2019-04-04T15:09:32.986Z,12.70
2019-04-04T15:12:03.749Z,12.70
2019-04-04T15:14:33.794Z,12.70
2019-04-04T15:17:04.941Z,12.70
2019-04-04T15:19:35.257Z,12.60
2019-04-04T15:22:05.235Z,12.70
2019-04-04T15:24:35.579Z,12.60
2019-04-04T15:27:06.389Z,12.60
2019-04-04T15:29:36.613Z,12.60
2019-04-04T15:32:07.437Z,12.70
2019-04-04T15:34:37.549Z,12.70
2019-04-04T15:37:07.865Z,12.70
2019-04-04T15:39:37.892Z,12.60
2019-04-04T15:42:08.275Z,12.70
2019-04-04T15:44:38.331Z,12.60
2019-04-04T15:47:08.639Z,12.70
2019-04-04T15:49:39.133Z,12.60
2019-04-04T15:52:09.900Z,12.60
2019-04-04T15:54:40.338Z,12.60
2019-04-04T15:57:10.508Z,12.60
2019-04-04T15:59:40.562Z,12.60
2019-04-04T16:02:10.563Z,12.60
2019-04-04T16:04:40.855Z,12.70
2019-04-04T16:07:12.311Z,12.70
2019-04-04T16:09:42.335Z,12.60
2019-04-04T16:12:12.511Z,12.60
2019-04-04T16:14:43.411Z,12.60
2019-04-04T16:17:13.424Z,12.50
2019-04-04T16:19:43.411Z,12.50
2019-04-04T16:22:13.855Z,12.60
2019-04-04T16:24:43.870Z,12.60
2019-04-04T16:27:14.540Z,12.60
2019-04-04T16:29:44.833Z,12.50
2019-04-04T16:32:15.259Z,12.50
2019-04-04T16:34:45.261Z,12.50
2019-04-04T16:37:15.817Z,12.60
2019-04-04T16:39:45.787Z,12.50
2019-04-04T16:42:15.861Z,12.50
2019-04-04T16:44:46.177Z,12.60
2019-04-04T16:47:16.176Z,12.50
2019-04-04T16:49:46.299Z,12.50
2019-04-04T16:52:16.264Z,12.40
2019-04-04T16:54:46.239Z,12.40
2019-04-04T16:57:16.567Z,12.40
2019-04-04T16:59:46.935Z,12.40
2019-04-04T17:02:16.933Z,12.40
2019-04-04T17:04:47.900Z,12.50
2019-04-04T17:07:18.268Z,12.40
2019-04-04T17:09:48.790Z,12.40
2019-04-04T17:12:18.776Z,12.50
2019-04-04T17:14:48.800Z,12.40
2019-04-04T17:17:19.159Z,12.50
2019-04-04T17:19:49.106Z,12.50
2019-04-04T17:22:19.039Z,12.50
2019-04-04T17:24:49.037Z,12.40
2019-04-04T17:27:19.328Z,12.40
2019-04-04T17:29:49.800Z,12.30
2019-04-04T17:32:20.164Z,12.20
2019-04-04T17:34:50.323Z,12.20
2019-04-04T17:37:20.341Z,12.20
2019-04-04T17:39:50.408Z,12.20
2019-04-04T17:42:29.651Z,12.10
2019-04-04T17:44:52.881Z,12.10
2019-04-04T17:47:23.198Z,12.00
2019-04-04T17:49:53.679Z,12.00
2019-04-04T17:52:24.307Z,12.00
2019-04-04T17:54:54.786Z,12.00
2019-04-04T17:57:25.055Z,12.00
2019-04-04T17:59:55.061Z,12.00
2019-04-04T18:02:25.561Z,12.10
2019-04-04T18:04:55.883Z,12.20
2019-04-04T18:07:27.255Z,12.10
2019-04-04T18:09:57.232Z,12.20
2019-04-04T18:12:39.244Z,12.20
2019-04-04T18:14:59.711Z,12.10
2019-04-04T18:19:41.892Z,12.20
2019-04-04T18:22:14.213Z,12.30
2019-04-04T18:24:45.660Z,12.90
2019-04-04T18:27:17.031Z,13.60
2019-04-04T18:29:48.406Z,14.90
2019-04-04T18:32:20.235Z,15.80
2019-04-04T18:34:52.229Z,16.50
2019-04-04T18:37:24.264Z,16.70
2019-04-04T18:39:56.401Z,15.60
2019-04-04T18:42:27.975Z,15.00
2019-04-04T18:45:00.054Z,14.50
2019-04-04T18:47:31.301Z,14.30
2019-04-04T18:50:03.197Z,14.00
2019-04-04T18:52:35.318Z,13.90
2019-04-04T18:55:19.104Z,13.70
2019-04-04T18:57:41.263Z,13.50
2019-04-04T19:00:12.988Z,13.30
2019-04-04T19:02:44.573Z,13.10
2019-04-04T19:05:16.047Z,12.90
2019-04-04T19:07:48.043Z,12.70
2019-04-04T19:10:20.167Z,12.70
2019-04-04T19:13:04.483Z,12.70
2019-04-04T19:15:26.715Z,12.70
2019-04-04T19:17:58.369Z,12.70
2019-04-04T19:20:30.139Z,12.50
2019-04-04T19:23:02.988Z,12.50
2019-04-04T19:25:35.000Z,12.40
2019-04-04T19:28:07.277Z,12.50
2019-04-04T19:30:39.231Z,12.40
2019-04-04T19:33:09.858Z,12.30
2019-04-04T19:35:41.486Z,12.30
2019-04-04T19:38:11.712Z,12.20
2019-04-04T19:40:42.924Z,12.20
2019-04-04T19:43:18.261Z,12.20
2019-04-04T19:45:48.084Z,12.10
2019-04-04T19:48:18.231Z,12.00
2019-04-04T19:50:50.728Z,12.00
2019-04-04T19:53:22.451Z,12.00
2019-04-04T19:55:53.741Z,12.00
2019-04-04T19:58:25.363Z,11.90
2019-04-04T20:00:56.628Z,12.00
2019-04-04T20:03:28.245Z,12.00
2019-04-04T20:06:00.341Z,12.00
2019-04-04T20:08:31.699Z,11.90
2019-04-04T20:11:03.100Z,11.80
2019-04-04T20:13:34.608Z,11.90
2019-04-04T20:16:06.246Z,11.90
2019-04-04T20:18:37.665Z,11.90
2019-04-04T20:21:10.779Z,11.90
2019-04-04T20:23:43.381Z,11.90
2019-04-04T20:26:15.043Z,11.90
2019-04-04T20:28:46.358Z,12.00
2019-04-04T20:31:17.630Z,11.90
2019-04-04T20:34:00.843Z,11.90
2019-04-04T20:36:23.263Z,11.90
2019-04-04T20:38:56.287Z,11.90
2019-04-04T20:41:27.828Z,11.80
2019-04-04T20:43:59.121Z,11.80
2019-04-04T20:46:42.396Z,11.90
2019-04-04T20:49:15.314Z,11.90
2019-04-04T20:51:47.191Z,12.00
2019-04-04T20:54:18.852Z,12.50
2019-04-04T20:56:50.922Z,13.50
2019-04-04T20:59:22.259Z,14.10
2019-04-04T21:01:53.509Z,15.10
2019-04-04T21:04:25.327Z,14.70
2019-04-04T21:06:56.050Z,15.50
2019-04-04T21:09:27.702Z,14.70
2019-04-04T21:12:00.274Z,13.90
2019-04-04T21:14:32.295Z,13.50
2019-04-04T21:17:04.293Z,13.30
2019-04-04T21:19:35.642Z,13.10
2019-04-04T21:22:08.635Z,13.00
2019-04-04T21:24:40.233Z,12.80
2019-04-04T21:27:12.816Z,12.70
2019-04-04T21:29:45.394Z,12.40
2019-04-04T21:32:17.151Z,12.30
2019-04-04T21:34:51.351Z,12.30
2019-04-04T21:37:22.980Z,12.20
2019-04-04T21:39:54.745Z,12.20
2019-04-04T21:42:26.761Z,12.20
2019-04-04T21:44:58.312Z,12.20
2019-04-04T21:47:30.026Z,12.10
2019-04-04T21:50:01.542Z,12.10
2019-04-04T21:52:34.039Z,12.00
2019-04-04T21:55:06.749Z,12.00
2019-04-04T21:57:38.258Z,12.00
2019-04-04T22:00:10.600Z,12.10
2019-04-04T22:02:44.493Z,12.00
2019-04-04T22:05:16.763Z,12.00
2019-04-04T22:07:48.628Z,11.90
2019-04-04T22:10:20.245Z,11.90
2019-04-04T22:12:52.357Z,11.90
2019-04-04T22:15:24.030Z,11.80
2019-04-04T22:17:54.464Z,11.80
2019-04-04T22:20:25.931Z,11.90
2019-04-04T22:22:57.255Z,11.90
2019-04-04T22:25:28.466Z,11.90
2019-04-04T22:28:00.118Z,11.90
2019-04-04T22:30:32.076Z,11.90
2019-04-04T22:33:03.592Z,11.90
2019-04-04T22:35:36.426Z,11.80
2019-04-04T22:38:06.601Z,11.80
2019-04-04T22:40:37.637Z,11.80
2019-04-04T22:43:09.884Z,11.80
2019-04-04T22:45:41.147Z,11.70
2019-04-04T22:48:12.416Z,11.70
2019-04-04T22:50:43.673Z,11.60
2019-04-04T22:53:15.126Z,11.70
2019-04-04T22:55:46.333Z,11.60
2019-04-04T22:58:27.619Z,11.50
2019-04-04T23:00:51.405Z,11.50
2019-04-04T23:03:24.935Z,11.60
2019-04-04T23:05:56.228Z,11.60
2019-04-04T23:08:27.418Z,11.70
2019-04-04T23:10:58.651Z,11.60
2019-04-04T23:13:29.944Z,11.60
2019-04-04T23:16:01.487Z,11.60
2019-04-04T23:18:33.066Z,11.60
2019-04-04T23:21:04.256Z,11.60
2019-04-04T23:23:35.551Z,11.60
2019-04-04T23:26:06.751Z,11.50
2019-04-04T23:28:38.657Z,11.50
2019-04-04T23:31:08.770Z,11.50
2019-04-04T23:33:39.861Z,11.50
2019-04-04T23:36:11.234Z,11.50
2019-04-04T23:38:42.456Z,11.50
2019-04-04T23:41:13.694Z,11.40
2019-04-04T23:43:45.175Z,11.40
2019-04-04T23:46:16.408Z,11.40
2019-04-04T23:48:48.677Z,11.50
2019-04-04T23:51:19.855Z,11.40
2019-04-04T23:53:51.551Z,11.40
2019-04-04T23:56:22.810Z,11.30
2019-04-04T23:58:54.067Z,11.30
